createdAt,value
2022-11-02T00:00:11.060Z,0
2022-11-02T00:02:12.505Z,0
2022-11-02T00:04:14.161Z,0
2022-11-02T00:06:15.688Z,0
2022-11-02T00:10:18.588Z,0
2022-11-02T00:12:20.348Z,0
2022-11-02T00:14:22.145Z,0
2022-11-02T00:16:24.191Z,0
2022-11-02T00:18:25.937Z,0
2022-11-02T00:22:28.164Z,0
2022-11-02T00:24:30.081Z,0
2022-11-02T00:26:31.096Z,0
2022-11-02T00:28:32.507Z,0
2022-11-02T00:30:33.602Z,0
2022-11-02T00:32:35.398Z,0
2022-11-02T00:34:36.953Z,0
2022-11-02T00:36:38.350Z,0
2022-11-02T00:38:40.303Z,0
2022-11-02T00:42:43.897Z,0
2022-11-02T00:44:45.429Z,0
2022-11-02T00:46:47.179Z,0
2022-11-02T00:48:48.407Z,0
2022-11-02T00:52:51.745Z,0
2022-11-02T00:54:53.271Z,0
2022-11-02T00:56:54.516Z,0
2022-11-02T00:58:55.666Z,0
2022-11-02T01:00:57.041Z,0
2022-11-02T01:02:58.955Z,0
2022-11-02T01:05:00.156Z,0
2022-11-02T01:07:01.446Z,0
2022-11-02T01:09:02.554Z,0
2022-11-02T01:11:04.317Z,0
2022-11-02T01:13:05.686Z,0
2022-11-02T01:15:07.647Z,0
2022-11-02T01:17:08.807Z,0
2022-11-02T01:19:18.914Z,0
2022-11-02T01:21:10.975Z,0
2022-11-02T01:23:12.354Z,0
2022-11-02T01:25:13.568Z,0
2022-11-02T01:27:23.662Z,0
2022-11-02T01:29:16.424Z,0
2022-11-02T01:31:18.034Z,0
2022-11-02T01:33:19.791Z,0
2022-11-02T01:35:21.259Z,0
2022-11-02T01:37:22.637Z,0
2022-11-02T01:39:24.356Z,0
2022-11-02T01:41:25.770Z,0
2022-11-02T01:43:27.713Z,0
2022-11-02T01:45:28.800Z,0
2022-11-02T01:47:30.432Z,0
2022-11-02T01:49:31.605Z,0
2022-11-02T01:51:33.533Z,0
2022-11-02T01:53:34.676Z,0
2022-11-02T01:55:36.418Z,0
2022-11-02T01:57:37.695Z,0
2022-11-02T01:59:38.966Z,0
2022-11-02T02:01:40.346Z,0
2022-11-02T02:03:42.202Z,0
2022-11-02T02:05:43.486Z,0
2022-11-02T02:07:45.365Z,0
2022-11-02T02:09:47.286Z,0
2022-11-02T02:11:48.472Z,0
2022-11-02T02:13:50.381Z,0
2022-11-02T02:15:51.607Z,0
2022-11-02T02:17:52.698Z,0
2022-11-02T02:19:54.176Z,0
2022-11-02T02:21:55.465Z,0
2022-11-02T02:23:57.144Z,0
2022-11-02T02:25:58.844Z,0
2022-11-02T02:28:00.134Z,0
2022-11-02T02:30:01.976Z,0
2022-11-02T02:32:03.614Z,0
2022-11-02T02:34:05.585Z,0
2022-11-02T02:36:06.745Z,0
2022-11-02T02:38:08.677Z,0
2022-11-02T02:40:10.461Z,0
2022-11-02T02:42:11.801Z,0
2022-11-02T02:44:13.471Z,0
2022-11-02T02:46:14.625Z,0
2022-11-02T02:48:16.457Z,0
2022-11-02T02:50:17.793Z,0
2022-11-02T02:52:18.816Z,0
2022-11-02T02:54:19.960Z,0
2022-11-02T02:56:21.652Z,0
2022-11-02T02:58:23.178Z,0
2022-11-02T03:00:24.627Z,0
2022-11-02T03:02:25.875Z,0
2022-11-02T03:04:27.260Z,0
2022-11-02T03:06:28.701Z,0
2022-11-02T03:08:29.886Z,0
2022-11-02T03:10:31.332Z,0
2022-11-02T03:12:32.672Z,0
2022-11-02T03:16:35.842Z,0
2022-11-02T03:18:37.461Z,0
2022-11-02T03:20:38.985Z,0
2022-11-02T03:22:40.518Z,0
2022-11-02T03:24:41.562Z,0
2022-11-02T03:28:44.474Z,0
2022-11-02T03:30:45.843Z,0.421
2022-11-02T03:32:46.842Z,0
2022-11-02T03:34:48.468Z,0.702
2022-11-02T03:38:51.075Z,0
2022-11-02T03:40:52.454Z,0.14
2022-11-02T03:42:54.339Z,0.28
2022-11-02T03:44:55.533Z,0
2022-11-02T03:46:57.306Z,0
2022-11-02T03:48:59.089Z,0
2022-11-02T03:51:00.565Z,0
2022-11-02T03:53:01.969Z,0
2022-11-02T03:55:03.408Z,0
2022-11-02T03:59:05.871Z,0
2022-11-02T04:01:07.185Z,0
2022-11-02T04:03:08.630Z,0
2022-11-02T04:05:10.469Z,0
2022-11-02T04:07:11.821Z,0.421
2022-11-02T04:09:13.277Z,0
2022-11-02T04:11:14.658Z,0.702
2022-11-02T04:13:16.323Z,1.544
2022-11-02T04:15:17.404Z,0
2022-11-02T04:17:18.541Z,0.14
2022-11-02T04:19:19.593Z,0
2022-11-02T04:21:20.679Z,0
2022-11-02T04:23:22.168Z,0
2022-11-02T04:25:23.622Z,0
2022-11-02T04:27:24.737Z,0
2022-11-02T04:29:26.605Z,2.386
2022-11-02T04:31:28.193Z,0
2022-11-02T04:33:29.781Z,0
2022-11-02T04:35:30.962Z,0
2022-11-02T04:37:32.765Z,0.28
2022-11-02T04:39:33.779Z,0
2022-11-02T04:41:34.985Z,0.14
2022-11-02T04:43:36.113Z,0.561
2022-11-02T04:45:37.965Z,0.982
2022-11-02T04:47:39.406Z,0.561
2022-11-02T04:49:40.614Z,0
2022-11-02T04:51:45.772Z,0
2022-11-02T04:53:43.829Z,0
2022-11-02T04:55:45.645Z,0.14
2022-11-02T04:57:47.427Z,1.263
2022-11-02T04:59:48.797Z,0.28
2022-11-02T05:01:50.357Z,2.386
2022-11-02T05:03:51.432Z,0.702
2022-11-02T05:05:52.649Z,0
2022-11-02T05:07:53.654Z,0
2022-11-02T05:09:54.850Z,0
2022-11-02T05:11:56.707Z,0
2022-11-02T05:13:58.336Z,1.965
2022-11-02T05:15:59.357Z,0
2022-11-02T05:18:01.210Z,0
2022-11-02T05:20:02.581Z,0
2022-11-02T05:22:03.667Z,0
2022-11-02T05:24:05.056Z,0
2022-11-02T05:26:06.986Z,0
2022-11-02T05:30:10.030Z,0
2022-11-02T05:32:11.616Z,0
2022-11-02T05:34:13.477Z,0
2022-11-02T05:36:14.978Z,0
2022-11-02T05:40:18.168Z,0
2022-11-02T05:42:19.658Z,0
2022-11-02T05:44:20.851Z,1.263
2022-11-02T05:46:22.387Z,0.702
2022-11-02T05:48:23.695Z,0
2022-11-02T05:52:26.825Z,0.28
2022-11-02T05:54:28.385Z,0
2022-11-02T05:56:30.154Z,0.28
2022-11-02T05:58:31.739Z,0
2022-11-02T06:00:33.337Z,0
2022-11-02T06:02:34.749Z,0
2022-11-02T06:04:36.343Z,0
2022-11-02T06:06:37.521Z,0.702
2022-11-02T06:08:38.654Z,1.404
2022-11-02T06:12:41.394Z,0.14
2022-11-02T06:14:42.889Z,0
2022-11-02T06:18:46.090Z,0
2022-11-02T06:20:47.136Z,0
2022-11-02T06:22:48.622Z,0
2022-11-02T06:23:32.528Z,0
2022-11-02T06:25:34.419Z,0
2022-11-02T06:27:35.804Z,0
2022-11-02T06:29:37.382Z,0
2022-11-02T06:31:39.012Z,0
2022-11-02T06:33:40.606Z,0
2022-11-02T06:35:41.906Z,0
2022-11-02T06:37:43.395Z,0
2022-11-02T06:39:44.630Z,0
2022-11-02T06:41:46.541Z,0
2022-11-02T06:43:48.422Z,0
2022-11-02T06:45:49.536Z,0
2022-11-02T06:49:52.625Z,0
2022-11-02T06:51:54.430Z,0
2022-11-02T06:53:55.741Z,0
2022-11-02T06:55:57.218Z,0
2022-11-02T06:57:58.962Z,0
2022-11-02T07:00:00.883Z,0
2022-11-02T07:02:02.931Z,0
2022-11-02T07:04:04.591Z,0.14
2022-11-02T07:06:09.788Z,1.544
2022-11-02T07:08:06.917Z,2.667
2022-11-02T07:10:08.349Z,3.79
2022-11-02T07:12:09.735Z,2.527
2022-11-02T07:14:10.749Z,1.684
2022-11-02T07:16:11.758Z,2.106
2022-11-02T07:18:13.070Z,0.702
2022-11-02T07:20:14.739Z,0.421
2022-11-02T07:22:16.002Z,3.088
2022-11-02T07:24:17.447Z,2.386
2022-11-02T07:26:18.417Z,0.702
2022-11-02T07:28:19.954Z,2.106
2022-11-02T07:30:21.317Z,4.071
2022-11-02T07:32:22.893Z,2.106
2022-11-02T07:34:24.006Z,3.229
2022-11-02T07:38:26.990Z,0.561
2022-11-02T07:40:28.906Z,0
2022-11-02T07:42:30.556Z,0.561
2022-11-02T07:44:31.700Z,1.263
2022-11-02T07:46:33.195Z,1.965
2022-11-02T07:48:34.711Z,1.263
2022-11-02T07:50:36.424Z,4.352
2022-11-02T07:52:38.201Z,1.263
2022-11-02T07:54:44.391Z,0.421
2022-11-02T07:56:41.256Z,0
2022-11-02T07:58:42.703Z,3.369
2022-11-02T08:00:43.759Z,0.28
2022-11-02T08:02:44.973Z,3.088
2022-11-02T08:04:46.126Z,2.386
2022-11-02T08:06:47.857Z,0.561
2022-11-02T08:08:48.849Z,2.386
2022-11-02T08:10:50.736Z,5.475
2022-11-02T08:12:52.508Z,0.561
2022-11-02T08:14:53.550Z,3.51
2022-11-02T08:16:54.856Z,3.229
2022-11-02T08:18:56.141Z,0.28
2022-11-02T08:20:57.805Z,3.369
2022-11-02T08:22:59.089Z,2.948
2022-11-02T08:25:00.313Z,0.982
2022-11-02T08:27:01.686Z,2.948
2022-11-02T08:29:03.558Z,2.667
2022-11-02T08:31:04.445Z,3.51
2022-11-02T08:33:05.391Z,1.404
2022-11-02T08:35:07.144Z,3.369
2022-11-02T08:37:08.418Z,1.965
2022-11-02T08:39:13.419Z,1.544
2022-11-02T08:43:12.743Z,0.28
2022-11-02T08:45:14.311Z,5.616
2022-11-02T08:47:15.252Z,5.335
2022-11-02T08:49:16.914Z,2.667
2022-11-02T08:53:19.737Z,3.79
2022-11-02T08:55:20.793Z,5.756
2022-11-02T08:57:22.266Z,8.283
2022-11-02T08:59:23.597Z,5.054
2022-11-02T09:03:27.401Z,9.266
2022-11-02T09:05:27.776Z,8.704
2022-11-02T09:07:28.879Z,2.948
2022-11-02T09:09:30.365Z,7.3
2022-11-02T09:13:33.009Z,4.071
2022-11-02T09:15:34.089Z,5.194
2022-11-02T09:17:35.883Z,3.931
2022-11-02T09:19:37.251Z,5.616
2022-11-02T09:21:38.776Z,8.845
2022-11-02T09:23:39.869Z,3.51
2022-11-02T09:25:40.909Z,3.51
2022-11-02T09:27:42.327Z,5.054
2022-11-02T09:29:43.599Z,4.352
2022-11-02T09:31:45.090Z,5.896
2022-11-02T09:33:46.950Z,3.65
2022-11-02T09:35:47.865Z,3.931
2022-11-02T09:37:50.971Z,2.106
2022-11-02T09:39:50.183Z,10.108
2022-11-02T09:41:51.342Z,6.458
2022-11-02T09:43:53.040Z,2.106
2022-11-02T09:45:54.551Z,2.808
2022-11-02T09:48:15.702Z,4.633
2022-11-02T09:49:57.152Z,5.335
2022-11-02T09:51:58.831Z,7.02
2022-11-02T09:53:59.800Z,4.492
2022-11-02T09:56:00.701Z,3.65
2022-11-02T09:58:02.168Z,7.02
2022-11-02T10:02:05.315Z,5.616
2022-11-02T10:04:06.943Z,2.386
2022-11-02T10:08:09.933Z,1.965
2022-11-02T10:10:11.310Z,2.527
2022-11-02T10:12:12.791Z,0.982
2022-11-02T10:14:23.270Z,3.229
2022-11-02T10:16:15.518Z,3.369
2022-11-02T10:18:17.071Z,7.02
2022-11-02T10:20:18.043Z,2.106
2022-11-02T10:22:19.752Z,3.088
2022-11-02T10:24:20.748Z,6.177
2022-11-02T10:26:22.003Z,1.544
2022-11-02T10:28:23.470Z,3.65
2022-11-02T10:30:25.188Z,1.263
2022-11-02T10:32:26.355Z,4.212
2022-11-02T10:34:27.677Z,3.79
2022-11-02T10:36:29.446Z,3.088
2022-11-02T10:38:30.357Z,3.51
2022-11-02T10:40:31.579Z,4.633
2022-11-02T10:44:34.663Z,2.106
2022-11-02T10:46:36.457Z,5.194
2022-11-02T10:48:37.400Z,4.492
2022-11-02T10:50:38.480Z,3.229
2022-11-02T10:54:40.269Z,3.79
2022-11-02T10:56:41.199Z,6.177
2022-11-02T10:58:42.806Z,3.65
2022-11-02T11:00:44.732Z,4.352
2022-11-02T11:02:45.967Z,5.475
2022-11-02T11:04:47.426Z,5.616
2022-11-02T11:06:49.222Z,4.352
2022-11-02T11:08:50.976Z,8.845
2022-11-02T11:10:52.661Z,1.544
2022-11-02T11:12:54.050Z,2.106
2022-11-02T11:16:55.989Z,6.318
2022-11-02T11:20:58.550Z,5.616
2022-11-02T11:22:59.948Z,3.369
2022-11-02T11:25:01.784Z,6.598
2022-11-02T11:27:03.253Z,1.965
2022-11-02T11:29:05.003Z,3.65
2022-11-02T11:31:06.173Z,5.616
2022-11-02T11:33:07.956Z,5.475
2022-11-02T11:35:08.982Z,4.492
2022-11-02T11:37:10.380Z,2.808
2022-11-02T11:39:11.516Z,4.633
2022-11-02T11:41:12.821Z,3.79
2022-11-02T11:43:14.473Z,2.106
2022-11-02T11:45:16.181Z,3.088
2022-11-02T11:47:17.840Z,0.14
2022-11-02T11:49:19.355Z,1.544
2022-11-02T11:51:25.193Z,3.088
2022-11-02T11:53:22.028Z,5.054
2022-11-02T11:55:23.638Z,2.386
2022-11-02T11:57:24.791Z,2.246
2022-11-02T11:59:25.672Z,3.931
2022-11-02T12:01:26.822Z,6.739
2022-11-02T12:03:28.216Z,5.335
2022-11-02T12:05:29.885Z,8.283
2022-11-02T12:07:31.696Z,10.951
2022-11-02T12:09:32.827Z,1.544
2022-11-02T12:11:34.243Z,5.896
2022-11-02T12:13:35.262Z,5.054
2022-11-02T12:15:36.167Z,6.598
2022-11-02T12:17:38.024Z,3.229
2022-11-02T12:19:39.730Z,3.369
2022-11-02T12:21:40.974Z,4.212
2022-11-02T12:25:43.683Z,7.722
2022-11-02T12:27:45.304Z,5.335
2022-11-02T12:29:46.984Z,9.126
2022-11-02T12:31:48.132Z,3.65
2022-11-02T12:37:52.504Z,7.441
2022-11-02T12:39:53.351Z,5.054
2022-11-02T12:41:54.259Z,3.931
2022-11-02T12:43:55.616Z,7.16
2022-11-02T12:45:56.639Z,0.14
2022-11-02T12:47:58.292Z,2.948
2022-11-02T12:49:59.242Z,2.808
2022-11-02T12:52:00.802Z,9.547
2022-11-02T12:54:01.774Z,8.283
2022-11-02T12:56:02.778Z,6.037
2022-11-02T12:58:04.246Z,10.81
2022-11-02T13:00:05.737Z,8.704
2022-11-02T13:04:08.012Z,5.475
2022-11-02T13:08:11.225Z,8.424
2022-11-02T13:08:54.955Z,8.985
2022-11-02T13:12:57.787Z,4.071
2022-11-02T13:14:59.400Z,2.386
2022-11-02T13:17:01.173Z,2.527
2022-11-02T13:19:02.040Z,9.968
2022-11-02T13:21:03.249Z,4.492
2022-11-02T13:23:04.771Z,11.372
2022-11-02T13:25:06.331Z,6.037
2022-11-02T13:27:14.919Z,8.283
2022-11-02T13:29:09.361Z,4.633
2022-11-02T13:31:12.976Z,11.934
2022-11-02T13:33:12.774Z,9.126
2022-11-02T13:35:14.489Z,8.564
2022-11-02T13:37:15.765Z,4.633
2022-11-02T13:39:16.715Z,5.616
2022-11-02T13:41:17.589Z,4.773
2022-11-02T13:43:18.982Z,4.492
2022-11-02T13:45:20.445Z,4.773
2022-11-02T13:47:22.167Z,2.386
2022-11-02T13:49:23.128Z,3.51
2022-11-02T13:51:24.094Z,8.424
2022-11-02T13:53:25.875Z,6.037
2022-11-02T13:55:26.931Z,7.02
2022-11-02T13:57:27.757Z,5.896
2022-11-02T13:59:29.153Z,7.16
2022-11-02T14:01:30.901Z,1.965
2022-11-02T14:03:31.730Z,5.616
2022-11-02T14:05:33.160Z,6.458
2022-11-02T14:07:34.188Z,7.02
2022-11-02T14:09:35.685Z,7.3
2022-11-02T14:11:37.384Z,3.65
2022-11-02T14:13:39.046Z,3.65
2022-11-02T14:15:40.410Z,4.071
2022-11-02T14:17:41.510Z,4.914
2022-11-02T14:19:42.518Z,9.406
2022-11-02T14:21:44.082Z,5.616
2022-11-02T14:23:45.632Z,8.985
2022-11-02T14:25:46.476Z,3.51
2022-11-02T14:27:47.360Z,9.266
2022-11-02T14:29:48.702Z,7.3
2022-11-02T14:31:49.958Z,5.194
2022-11-02T14:33:51.444Z,5.896
2022-11-02T14:35:52.437Z,6.458
2022-11-02T14:37:53.345Z,5.896
2022-11-02T14:39:54.999Z,6.458
2022-11-02T14:43:57.661Z,10.249
2022-11-02T14:45:58.539Z,5.896
2022-11-02T14:47:59.453Z,4.773
2022-11-02T14:50:00.416Z,3.65
2022-11-02T14:54:02.363Z,2.808
2022-11-02T14:56:04.216Z,5.335
2022-11-02T14:58:10.795Z,4.212
2022-11-02T15:00:07.188Z,6.318
2022-11-02T15:02:08.418Z,6.879
2022-11-02T15:04:09.453Z,2.246
2022-11-02T15:06:10.411Z,0.982
2022-11-02T15:08:11.700Z,0.28
2022-11-02T15:10:12.685Z,2.106
2022-11-02T15:12:14.127Z,0.702
2022-11-02T15:14:15.792Z,2.527
2022-11-02T15:16:16.692Z,2.106
2022-11-02T15:18:17.743Z,1.544
2022-11-02T15:20:19.152Z,0
2022-11-02T15:22:20.910Z,0
2022-11-02T15:24:22.350Z,0
2022-11-02T15:26:24.147Z,2.527
2022-11-02T15:28:25.511Z,2.246
2022-11-02T15:30:28.630Z,1.404
2022-11-02T15:32:28.136Z,1.404
2022-11-02T15:34:29.169Z,1.123
2022-11-02T15:36:30.589Z,0.421
2022-11-02T15:38:36.826Z,0.842
2022-11-02T15:40:33.793Z,1.965
2022-11-02T15:42:35.134Z,0.28
2022-11-02T15:44:36.298Z,0.561
2022-11-02T15:46:38.050Z,0
2022-11-02T15:48:39.535Z,0.14
2022-11-02T15:50:40.432Z,0.982
2022-11-02T15:52:55.807Z,0.982
2022-11-02T15:54:46.008Z,0.561
2022-11-02T15:56:44.172Z,2.106
2022-11-02T15:58:46.001Z,1.263
2022-11-02T16:00:47.103Z,0
2022-11-02T16:02:48.929Z,0
2022-11-02T16:04:50.013Z,0.421
2022-11-02T16:06:51.283Z,0.842
2022-11-02T16:08:53.040Z,0
2022-11-02T16:10:54.430Z,0
2022-11-02T16:12:55.416Z,0
2022-11-02T16:14:57.229Z,0
2022-11-02T16:16:58.308Z,0
2022-11-02T16:18:59.894Z,0.14
2022-11-02T16:21:01.536Z,0
2022-11-02T16:25:04.120Z,0
2022-11-02T16:27:05.100Z,0
2022-11-02T16:29:06.705Z,0
2022-11-02T16:31:16.074Z,0
2022-11-02T16:35:11.382Z,0
2022-11-02T16:37:12.582Z,0
2022-11-02T16:39:14.277Z,0
2022-11-02T16:41:15.407Z,0
2022-11-02T16:43:16.478Z,0
2022-11-02T16:47:19.460Z,0
2022-11-02T16:49:20.746Z,0
2022-11-02T16:51:22.291Z,0
2022-11-02T16:53:23.342Z,0
2022-11-02T16:57:26.216Z,0.28
2022-11-02T16:59:27.847Z,0
2022-11-02T17:01:28.989Z,0.14
2022-11-02T17:03:29.925Z,0
2022-11-02T17:07:33.175Z,0.561
2022-11-02T17:09:34.893Z,1.544
2022-11-02T17:11:36.412Z,0.421
2022-11-02T17:13:37.901Z,0
2022-11-02T17:15:38.960Z,0
2022-11-02T17:17:40.124Z,0
2022-11-02T17:19:41.148Z,0
2022-11-02T17:21:43.085Z,0
2022-11-02T17:23:44.229Z,0
2022-11-02T17:25:45.369Z,0
2022-11-02T17:27:46.316Z,0
2022-11-02T17:29:47.605Z,0.842
2022-11-02T17:31:49.213Z,2.667
2022-11-02T17:33:50.720Z,0
2022-11-02T17:35:52.085Z,0
2022-11-02T17:37:53.884Z,0
2022-11-02T17:39:55.313Z,0
2022-11-02T17:41:57.000Z,1.263
2022-11-02T17:43:58.569Z,2.808
2022-11-02T17:46:00.445Z,0.982
2022-11-02T17:48:02.542Z,0
2022-11-02T17:50:04.175Z,0.842
2022-11-02T17:52:05.802Z,0.28
2022-11-02T17:54:07.249Z,0
2022-11-02T17:56:08.404Z,0.561
2022-11-02T17:58:09.470Z,0.14
2022-11-02T18:00:11.039Z,0
2022-11-02T18:02:12.293Z,0
2022-11-02T18:06:15.077Z,0
2022-11-02T18:08:16.925Z,0
2022-11-02T18:10:18.780Z,0
2022-11-02T18:12:20.722Z,0
2022-11-02T18:14:31.643Z,0
2022-11-02T18:16:24.370Z,0
2022-11-02T18:18:26.121Z,0
2022-11-02T18:22:29.278Z,0
2022-11-02T18:24:30.319Z,0
2022-11-02T18:26:31.413Z,0
2022-11-02T18:28:33.311Z,0
2022-11-02T18:30:34.706Z,0
2022-11-02T18:32:35.843Z,0
2022-11-02T18:34:37.074Z,2.106
2022-11-02T18:38:39.626Z,1.123
2022-11-02T18:40:41.532Z,0
2022-11-02T18:42:43.149Z,0
2022-11-02T18:44:44.197Z,0
2022-11-02T18:48:46.981Z,0
2022-11-02T18:50:48.913Z,0
2022-11-02T18:52:50.652Z,0
2022-11-02T18:54:51.778Z,0
2022-11-02T18:58:54.758Z,0
2022-11-02T19:00:56.105Z,0
2022-11-02T19:02:57.753Z,0
2022-11-02T19:04:59.275Z,0
2022-11-02T19:07:00.592Z,0
2022-11-02T19:09:02.493Z,0
2022-11-02T19:11:04.202Z,0
2022-11-02T19:13:05.396Z,0
2022-11-02T19:15:06.844Z,0
2022-11-02T19:17:08.414Z,0
2022-11-02T19:19:09.689Z,0
2022-11-02T19:21:10.996Z,0
2022-11-02T19:23:12.124Z,0
2022-11-02T19:25:13.571Z,0
2022-11-02T19:27:14.599Z,0
2022-11-02T19:31:17.491Z,0
2022-11-02T19:33:18.858Z,0
2022-11-02T19:35:20.459Z,0
2022-11-02T19:37:22.436Z,0
2022-11-02T19:41:25.625Z,0
2022-11-02T19:43:26.645Z,0.702
2022-11-02T19:45:27.808Z,0.702
2022-11-02T19:47:29.613Z,0
2022-11-02T19:49:30.602Z,0
2022-11-02T19:51:31.761Z,0
2022-11-02T19:53:33.299Z,0
2022-11-02T19:54:17.181Z,0
2022-11-02T19:56:18.719Z,0
2022-11-02T19:58:20.499Z,0
2022-11-02T20:00:21.968Z,0
2022-11-02T20:02:23.602Z,0
2022-11-02T20:04:25.479Z,0
2022-11-02T20:06:27.003Z,0
2022-11-02T20:08:28.032Z,0
2022-11-02T20:10:29.287Z,0
2022-11-02T20:12:30.632Z,0
2022-11-02T20:14:32.280Z,0
2022-11-02T20:16:33.857Z,0
2022-11-02T20:18:35.010Z,0
2022-11-02T20:20:36.608Z,0
2022-11-02T20:22:38.402Z,0
2022-11-02T20:24:39.655Z,0
2022-11-02T20:26:41.491Z,0
2022-11-02T20:28:43.342Z,0
2022-11-02T20:30:45.092Z,0
2022-11-02T20:32:46.897Z,0
2022-11-02T20:34:48.528Z,0
2022-11-02T20:36:49.784Z,0
2022-11-02T20:38:51.087Z,0
2022-11-02T20:40:52.465Z,0
2022-11-02T20:42:54.429Z,0
2022-11-02T20:44:55.499Z,0
2022-11-02T20:46:57.347Z,0
2022-11-02T20:49:01.429Z,0
2022-11-02T20:51:00.383Z,0
2022-11-02T20:53:01.988Z,0
2022-11-02T20:55:03.248Z,0
2022-11-02T20:57:04.684Z,0
2022-11-02T20:59:06.284Z,1.263
2022-11-02T21:01:08.036Z,0.28
2022-11-02T21:03:09.586Z,0
2022-11-02T21:05:10.638Z,0
2022-11-02T21:07:12.122Z,0
2022-11-02T21:09:13.868Z,0
2022-11-02T21:11:15.272Z,0
2022-11-02T21:13:16.741Z,0
2022-11-02T21:15:18.748Z,0
2022-11-02T21:17:20.275Z,0
2022-11-02T21:19:21.593Z,0
2022-11-02T21:21:23.267Z,0
2022-11-02T21:23:24.344Z,0
2022-11-02T21:25:25.483Z,0
2022-11-02T21:27:27.459Z,0
2022-11-02T21:29:28.692Z,0
2022-11-02T21:31:30.576Z,0
2022-11-02T21:33:32.563Z,0
2022-11-02T21:35:33.724Z,0
2022-11-02T21:37:35.153Z,0
2022-11-02T21:39:36.514Z,0
2022-11-02T21:41:37.927Z,0
2022-11-02T21:43:39.342Z,0
2022-11-02T21:45:40.898Z,0
2022-11-02T21:49:43.951Z,0
2022-11-02T21:51:45.364Z,0
2022-11-02T21:53:47.014Z,0
2022-11-02T21:55:48.304Z,0
2022-11-02T21:59:51.652Z,0
2022-11-02T22:01:53.153Z,0
2022-11-02T22:03:54.617Z,0
2022-11-02T22:05:55.993Z,0
2022-11-02T22:07:57.174Z,0
2022-11-02T22:09:59.087Z,0
2022-11-02T22:12:00.556Z,0
2022-11-02T22:14:02.147Z,0
2022-11-02T22:16:03.950Z,0
2022-11-02T22:18:05.814Z,0
2022-11-02T22:20:06.882Z,0
2022-11-02T22:22:08.149Z,0
2022-11-02T22:24:09.664Z,0
2022-11-02T22:26:11.208Z,0
2022-11-02T22:28:13.103Z,0
2022-11-02T22:32:15.933Z,0
2022-11-02T22:34:17.315Z,0
2022-11-02T22:36:19.221Z,0.14
2022-11-02T22:38:20.874Z,0
2022-11-02T22:42:24.619Z,0
2022-11-02T22:44:25.794Z,0
2022-11-02T22:46:26.881Z,0
2022-11-02T22:48:27.959Z,0
2022-11-02T22:50:29.931Z,0
2022-11-02T22:52:31.281Z,0
2022-11-02T22:54:32.305Z,0
2022-11-02T22:56:33.721Z,0
2022-11-02T22:58:35.129Z,0
2022-11-02T23:00:36.632Z,0
2022-11-02T23:02:38.577Z,0
2022-11-02T23:04:40.545Z,0
2022-11-02T23:06:41.678Z,0
2022-11-02T23:10:46.452Z,0
2022-11-02T23:14:47.751Z,0
2022-11-02T23:16:49.150Z,0
2022-11-02T23:18:51.142Z,0
2022-11-02T23:20:53.156Z,0
2022-11-02T23:24:55.552Z,0
2022-11-02T23:26:57.321Z,0
2022-11-02T23:28:58.712Z,0
2022-11-02T23:33:02.408Z,0
2022-11-02T23:35:04.117Z,0
2022-11-02T23:37:05.491Z,0
2022-11-02T23:39:06.885Z,0
2022-11-02T23:41:08.382Z,0
2022-11-02T23:43:10.224Z,0
2022-11-02T23:45:11.345Z,0
2022-11-02T23:47:13.153Z,0
2022-11-02T23:49:14.705Z,0
2022-11-02T23:51:16.514Z,0
2022-11-02T23:53:17.561Z,0
2022-11-02T23:55:19.126Z,0
2022-11-02T23:57:20.760Z,0
2022-11-02T23:59:21.905Z,0
